地図

経路データ

SID SEASON NUMBER BASIN SUBBASIN NAME ISO_TIME NATURE LAT LON WMO_WIND WMO_PRES WMO_AGENCY TRACK_TYPE DIST2LAND LANDFALL IFLAG USA_AGENCY USA_ATCF_ID USA_LAT USA_LON USA_RECORD USA_STATUS USA_WIND USA_PRES USA_SSHS USA_R34_NE USA_R34_SE USA_R34_SW USA_R34_NW USA_R50_NE USA_R50_SE USA_R50_SW USA_R50_NW USA_R64_NE USA_R64_SE USA_R64_SW USA_R64_NW USA_POCI USA_ROCI USA_RMW USA_EYE TOKYO_LAT TOKYO_LON TOKYO_GRADE TOKYO_WIND TOKYO_PRES TOKYO_R50_DIR TOKYO_R50_LONG TOKYO_R50_SHORT TOKYO_R30_DIR TOKYO_R30_LONG TOKYO_R30_SHORT TOKYO_LAND CMA_LAT CMA_LON CMA_CAT CMA_WIND CMA_PRES HKO_LAT HKO_LON HKO_CAT HKO_WIND HKO_PRES NEWDELHI_LAT NEWDELHI_LON NEWDELHI_GRADE NEWDELHI_WIND NEWDELHI_PRES NEWDELHI_CI NEWDELHI_DP NEWDELHI_POCI REUNION_LAT REUNION_LON REUNION_TYPE REUNION_WIND REUNION_PRES REUNION_TNUM REUNION_CI REUNION_RMW REUNION_R34_NE REUNION_R34_SE REUNION_R34_SW REUNION_R34_NW REUNION_R50_NE REUNION_R50_SE REUNION_R50_SW REUNION_R50_NW REUNION_R64_NE REUNION_R64_SE REUNION_R64_SW REUNION_R64_NW BOM_LAT BOM_LON BOM_TYPE BOM_WIND BOM_PRES BOM_TNUM BOM_CI BOM_RMW BOM_R34_NE BOM_R34_SE BOM_R34_SW BOM_R34_NW BOM_R50_NE BOM_R50_SE BOM_R50_SW BOM_R50_NW BOM_R64_NE BOM_R64_SE BOM_R64_SW BOM_R64_NW BOM_ROCI BOM_POCI BOM_EYE BOM_POS_METHOD BOM_PRES_METHOD NADI_LAT NADI_LON NADI_CAT NADI_WIND NADI_PRES WELLINGTON_LAT WELLINGTON_LON WELLINGTON_WIND WELLINGTON_PRES DS824_LAT DS824_LON DS824_STAGE DS824_WIND DS824_PRES TD9636_LAT TD9636_LON TD9636_STAGE TD9636_WIND TD9636_PRES TD9635_LAT TD9635_LON TD9635_WIND TD9635_PRES TD9635_ROCI NEUMANN_LAT NEUMANN_LON NEUMANN_CLASS NEUMANN_WIND NEUMANN_PRES MLC_LAT MLC_LON MLC_CLASS MLC_WIND MLC_PRES USA_GUST BOM_GUST BOM_GUST_PER REUNION_GUST REUNION_GUST_PER USA_SEAHGT USA_SEARAD_NE USA_SEARAD_SE USA_SEARAD_SW USA_SEARAD_NW STORM_SPEED STORM_DIR
1947076S15122 1947 25 SI WA NOT_NAMED 1947-03-16 23:00:00 NR -14.8000 122.200 main 204 194 __________O___ -1 -14.8000 122.200 7 5 0
1947076S15122 1947 25 SI WA NOT_NAMED 1947-03-17 00:00:00 TS -14.8817 122.217 main 194 194 O________OP___ jtwc_sh SH231947 -14.9000 122.200 -1 -14.9000 122.200 TC -14.8633 122.235 7 1 0
1947076S15122 1947 25 SI WA NOT_NAMED 1947-03-17 01:00:00 TS -14.8192 122.218 996 bom main 204 190 P_____O__PP___ SH231947 -14.9435 122.233 -1 -14.0000 122.000 996 -14.9435 122.233 TC -14.9264 122.270 7 1 72
1947076S15122 1947 25 SI WA NOT_NAMED 1947-03-17 03:00:00 TS -14.8697 122.265 main 190 179 P_____P__PP___ SH231947 -15.0350 122.300 -1 -14.0106 122.009 -15.0350 122.300 TC -15.0512 122.339 7 2 145
1947076S15122 1947 25 SI WA NOT_NAMED 1947-03-17 06:00:00 TS -14.9770 122.336 main 179 165 O_____P__OP___ jtwc_sh SH231947 -15.2000 122.400 -1 -14.0432 122.027 -15.2000 122.400 TC -15.2315 122.441 7 3 149
1947076S15122 1947 25 SI WA NOT_NAMED 1947-03-17 09:00:00 TS -15.0830 122.398 main 165 155 P_____P__PP___ SH231947 -15.4075 122.500 -1 -14.1185 122.054 -15.4075 122.500 TC -15.3986 122.538 7 3 153
1947076S15122 1947 25 SI WA NOT_NAMED 1947-03-17 11:00:00 TS -15.1973 122.453 main 151 151 P_____P__PO___ SH231947 -15.5421 122.567 -1 -14.2050 122.080 -15.5421 122.567 TC -15.5000 122.600 7 4 156
1947076S15122 1947 25 SI WA NOT_NAMED 1947-03-17 12:00:00 TS -15.2523 122.481 main 140 127 O_____P__OP___ jtwc_sh SH231947 -15.6000 122.600 -1 -14.2621 122.096 -15.6000 122.600 TC -15.5472 122.630 7 3 150
1947076S15122 1947 25 SI WA NOT_NAMED 1947-03-17 15:00:00 TS -15.3951 122.572 main 127 102 P_____P__PP___ SH231947 -15.7000 122.708 -1 -14.4996 122.159 -15.7000 122.708 TC -15.6807 122.713 7 4 151
1947076S15122 1947 25 SI WA NOT_NAMED 1947-03-17 18:00:00 TS -15.5684 122.660 main 102 81 O_____P__OP___ jtwc_sh SH231947 -15.8000 122.800 -1 -14.8568 122.249 -15.8000 122.800 TC -15.8168 122.790 7 5 160
1947076S15122 1947 25 SI WA NOT_NAMED 1947-03-17 21:00:00 TS -15.8221 122.737 main 81 56 P_____P__PP___ SH231947 -15.9775 122.858 -1 -15.3594 122.373 -15.9775 122.858 TC -15.9741 122.858 7 6 165
1947076S15122 1947 25 SI WA NOT_NAMED 1947-03-17 23:00:00 TS -16.0332 122.787 main 56 46 P_____P__PO___ SH231947 -16.1224 122.886 -1 -15.7879 122.477 -16.1224 122.886 TC -16.1000 122.900 7 7 168
1947076S15122 1947 25 SI WA NOT_NAMED 1947-03-18 00:00:00 TS -16.1534 122.802 main 35 24 O_____P__OP___ jtwc_sh SH231947 -16.2000 122.900 -1 -16.0330 122.536 -16.2000 122.900 TC -16.1688 122.924 7 7 170
1947076S15122 1947 25 SI WA NOT_NAMED 1947-03-18 01:00:00 TS -16.2764 122.821 993 bom main 24 11 P_____O__PP___ SH231947 -16.2750 122.917 -1 -16.3000 122.600 993 -16.2750 122.917 TC -16.2417 122.947 7 8 169
1947076S15122 1947 25 SI WA NOT_NAMED 1947-03-18 02:30:00 TS -16.4614 122.855 993 bom main 0 0 P_____O__PP___ SH231947 -16.3938 122.942 -1 -16.7000 122.700 993 -16.3938 122.942 TC -16.3589 122.980 7 7 170
1947076S15122 1947 25 SI WA NOT_NAMED 1947-03-18 03:00:00 TS -16.5163 122.859 main 0 0 P_____P__PP___ SH231947 -16.4350 122.950 -1 -16.7991 122.730 992 -16.4350 122.950 TC -16.4000 122.991 7 6 166
1947076S15122 1947 25 SI WA NOT_NAMED 1947-03-18 06:00:00 TS -16.7921 122.932 main 0 0 O_____P__OP___ jtwc_sh SH231947 -16.7000 123.000 -1 -17.0668 122.866 992 -16.7000 123.000 TC -16.6688 123.047 7 6 166
1947076S15122 1947 25 SI WA NOT_NAMED 1947-03-18 07:00:00 TS -16.8748 122.955 992 bom main 0 0 P_____O__PP___ SH231947 -16.7890 123.019 -1 -17.1000 122.900 992 4 -16.7890 123.019 TC -16.7667 123.062 7 5 167
1947076S15122 1947 25 SI WA NOT_NAMED 1947-03-18 09:00:00 TS -17.0512 122.997 main 0 0 P_____P__PP___ SH231947 -16.9775 123.057 -1 -17.1881 122.960 -16.9775 123.057 TC -16.9750 123.086 7 6 168
1947076S15122 1947 25 SI WA NOT_NAMED 1947-03-18 11:00:00 TS -17.2460 123.032 main 0 0 P_____P__PO___ SH231947 -17.1860 123.089 -1 -17.3118 123.011 -17.1860 123.089 TC -17.2000 123.100 7 6 171
1947076S15122 1947 25 SI WA NOT_NAMED 1947-03-18 12:00:00 TS -17.3566 123.041 main 0 0 O_____P__OP___ jtwc_sh SH231947 -17.3000 123.100 -1 -17.3856 123.033 -17.3000 123.100 TC -17.3187 123.102 7 7 176
1947076S15122 1947 25 SI WA NOT_NAMED 1947-03-18 15:00:00 TS -17.6974 123.066 main 0 0 P_____P__PP___ SH231947 -17.6825 123.110 -1 -17.6481 123.089 -17.6825 123.110 TC -17.6963 123.094 7 7 176
1947076S15122 1947 25 SI WA NOT_NAMED 1947-03-18 18:00:00 TS -18.0492 123.086 main 0 0 O_____P__OP___ jtwc_sh SH231947 -18.1000 123.100 -1 -17.9606 123.131 -18.1000 123.100 TC -18.0989 123.067 7 7 175
1947076S15122 1947 25 SI WA NOT_NAMED 1947-03-18 21:00:00 TS -18.3811 123.121 main 0 0 ______P___P___ SH231947 -1 -18.3081 123.164 TC -18.5171 123.029 7 7 175
1947076S15122 1947 25 SI WA NOT_NAMED 1947-03-18 23:00:00 TS -18.6079 123.149 main 0 0 ______P___O___ SH231947 -1 -18.5519 123.182 TC -18.8000 123.000 7 6 166
1947076S15122 1947 25 SI WA NOT_NAMED 1947-03-19 00:00:00 TS -18.6838 123.194 main 0 0 ______P_______ -1 -18.6757 123.191 7 6 166
1947076S15122 1947 25 SI WA NOT_NAMED 1947-03-19 01:00:00 NR -18.8000 123.200 1002 bom main 0 ______O_______ -1 -18.8000 123.200 1002 7 7 168

IBTrACS Databaseについて

本データベースは、米国NOAAが公開する1842年以降の世界の熱帯低気圧のベストトラックデータアーカイブInternational Best Track Archive for Climate Stewardship (IBTrACS)を、ウェブで閲覧しやすい形式に変換したものです。

最終更新日:2021-10-21